createdAt,value
2019-02-08T00:00:27.241Z,37.50
2019-02-08T00:01:33.878Z,36.80
2019-02-08T00:02:40.023Z,38.40
2019-02-08T00:03:46.406Z,37.95
2019-02-08T00:04:53.271Z,36.88
2019-02-08T00:05:59.647Z,36.85
2019-02-08T00:07:06.184Z,36.17
2019-02-08T00:08:13.108Z,36.20
2019-02-08T00:09:20.260Z,36.65
2019-02-08T00:10:28.280Z,35.23
2019-02-08T00:11:35.878Z,36.65
2019-02-08T00:12:43.490Z,35.17
2019-02-08T00:13:50.493Z,35.43
2019-02-08T00:14:57.284Z,36.15
2019-02-08T00:16:04.323Z,36.68
2019-02-08T00:17:11.218Z,34.63
2019-02-08T00:18:17.727Z,36.77
2019-02-08T00:19:25.099Z,35.78
2019-02-08T00:20:32.066Z,36.53
2019-02-08T00:21:38.844Z,35.33
2019-02-08T00:22:45.948Z,36.63
2019-02-08T00:23:53.774Z,38.38
2019-02-08T00:25:04.180Z,38.23
2019-02-08T00:26:11.141Z,40.17
2019-02-08T00:27:18.280Z,40.05
2019-02-08T00:28:24.679Z,37.10
2019-02-08T00:29:31.923Z,37.65
2019-02-08T00:30:38.748Z,37.15
2019-02-08T00:31:45.502Z,36.80
2019-02-08T00:32:51.988Z,36.73
2019-02-08T00:33:58.817Z,35.90
2019-02-08T00:35:07.362Z,33.83
2019-02-08T00:36:14.033Z,35.43
2019-02-08T00:37:22.127Z,34.70
2019-02-08T00:38:28.590Z,34.50
2019-02-08T00:39:35.770Z,34.15
2019-02-08T00:40:41.873Z,36.30
2019-02-08T00:41:48.955Z,35.50
2019-02-08T00:42:55.992Z,36.85
2019-02-08T00:44:02.468Z,36.25
2019-02-08T00:45:19.110Z,37.15
2019-02-08T00:46:25.586Z,37.45
2019-02-08T00:47:31.956Z,36.90
2019-02-08T00:48:39.128Z,35.08
2019-02-08T00:49:46.088Z,35.00
2019-02-08T00:50:52.491Z,35.58
2019-02-08T00:52:00.423Z,35.92
2019-02-08T00:53:08.239Z,36.08
2019-02-08T00:54:15.380Z,36.83
2019-02-08T00:55:21.885Z,34.65
2019-02-08T00:56:28.207Z,37.15
2019-02-08T00:57:35.133Z,37.25
2019-02-08T00:58:41.895Z,35.20
2019-02-08T00:59:48.798Z,34.60
2019-02-08T01:00:55.721Z,35.00
2019-02-08T01:02:01.946Z,33.53
2019-02-08T01:03:10.320Z,32.15
2019-02-08T01:04:16.538Z,33.00
2019-02-08T01:05:28.922Z,34.20
2019-02-08T01:06:36.185Z,34.38
2019-02-08T01:07:43.242Z,36.35
2019-02-08T01:08:49.283Z,35.70
2019-02-08T01:09:55.942Z,35.85
2019-02-08T01:11:02.109Z,35.78
2019-02-08T01:12:08.745Z,36.60
2019-02-08T01:13:15.404Z,37.55
2019-02-08T01:14:21.986Z,36.38
2019-02-08T01:15:30.028Z,35.78
2019-02-08T01:16:36.611Z,37.05
2019-02-08T01:17:43.839Z,36.35
2019-02-08T01:18:51.168Z,35.23
2019-02-08T01:19:58.469Z,35.25
2019-02-08T01:21:05.268Z,35.88
2019-02-08T01:22:12.163Z,35.38
2019-02-08T01:23:18.226Z,35.48
2019-02-08T01:24:24.272Z,34.45
2019-02-08T01:25:32.284Z,35.10
2019-02-08T01:26:38.827Z,32.33
2019-02-08T01:27:45.523Z,31.65
2019-02-08T01:28:51.706Z,32.60
2019-02-08T01:29:58.061Z,33.05
2019-02-08T01:31:05.220Z,31.70
2019-02-08T01:32:11.936Z,31.97
2019-02-08T01:33:18.446Z,32.88
2019-02-08T01:34:24.873Z,32.70
2019-02-08T01:35:32.306Z,32.28
2019-02-08T01:36:39.006Z,32.70
2019-02-08T01:37:46.210Z,33.35
2019-02-08T01:38:52.766Z,34.13
2019-02-08T01:39:59.871Z,34.50
2019-02-08T01:41:06.112Z,34.13
2019-02-08T01:42:13.243Z,33.23
2019-02-08T01:43:20.300Z,36.28
2019-02-08T01:44:27.984Z,35.08
2019-02-08T01:45:41.214Z,33.95
2019-02-08T01:46:48.103Z,35.28
2019-02-08T01:47:55.332Z,35.33
2019-02-08T01:49:01.614Z,36.53
2019-02-08T01:50:15.521Z,35.73
2019-02-08T01:51:22.713Z,34.55
2019-02-08T01:52:29.665Z,34.75
2019-02-08T01:53:36.074Z,34.35
2019-02-08T01:54:42.807Z,34.27
2019-02-08T01:55:49.336Z,33.45
2019-02-08T01:56:55.836Z,33.70
2019-02-08T01:58:02.549Z,31.60
2019-02-08T01:59:09.280Z,33.20
2019-02-08T02:00:35.679Z,34.30
2019-02-08T02:01:42.346Z,32.85
2019-02-08T02:02:49.501Z,33.75
2019-02-08T02:03:56.075Z,34.55
2019-02-08T02:05:02.622Z,32.08
2019-02-08T02:06:08.694Z,33.88
2019-02-08T02:07:15.794Z,34.73
2019-02-08T02:08:21.877Z,34.23
2019-02-08T02:09:29.065Z,34.98
2019-02-08T02:10:42.094Z,35.70
2019-02-08T02:11:49.797Z,33.88
2019-02-08T02:12:57.168Z,35.55
2019-02-08T02:14:03.824Z,35.30
2019-02-08T02:15:11.520Z,36.83
2019-02-08T02:16:18.320Z,33.85
2019-02-08T02:17:25.634Z,34.13
2019-02-08T02:18:32.751Z,33.15
2019-02-08T02:19:43.961Z,34.43
2019-02-08T02:20:52.419Z,32.90
2019-02-08T02:21:58.657Z,32.40
2019-02-08T02:23:05.602Z,31.80
2019-02-08T02:24:12.599Z,31.65
2019-02-08T02:25:19.718Z,31.40
2019-02-08T02:26:26.070Z,31.73
2019-02-08T02:27:33.357Z,33.67
2019-02-08T02:28:40.461Z,33.08
2019-02-08T02:29:47.735Z,33.23
2019-02-08T02:30:54.421Z,33.30
2019-02-08T02:32:01.383Z,33.73
2019-02-08T02:33:10.916Z,31.52
2019-02-08T02:34:16.872Z,31.85
2019-02-08T02:35:24.617Z,32.60
2019-02-08T02:36:31.927Z,32.95
2019-02-08T02:37:38.852Z,33.80
2019-02-08T02:38:45.055Z,32.88
2019-02-08T02:39:52.506Z,33.48
2019-02-08T02:40:59.149Z,33.67
2019-02-08T02:42:05.732Z,35.68
2019-02-08T02:43:12.741Z,32.30
2019-02-08T02:44:20.417Z,31.93
2019-02-08T02:45:34.049Z,32.33
2019-02-08T02:46:42.056Z,32.40
2019-02-08T02:47:49.035Z,31.25
2019-02-08T02:48:56.373Z,31.60
2019-02-08T02:50:02.036Z,31.95
2019-02-08T02:51:09.272Z,31.90
2019-02-08T02:52:16.368Z,30.17
2019-02-08T02:53:24.324Z,31.65
2019-02-08T02:54:31.829Z,30.97
2019-02-08T02:55:38.574Z,32.63
2019-02-08T02:56:45.643Z,30.95
2019-02-08T02:57:53.114Z,31.65
2019-02-08T02:59:00.226Z,29.95
2019-02-08T03:00:17.639Z,30.72
2019-02-08T03:01:24.359Z,30.50
2019-02-08T03:02:30.963Z,32.75
2019-02-08T03:03:37.262Z,32.80
2019-02-08T03:04:43.873Z,32.83
2019-02-08T03:05:50.921Z,32.48
2019-02-08T03:06:57.339Z,33.15
2019-02-08T03:08:04.866Z,33.33
2019-02-08T03:09:11.373Z,32.50
2019-02-08T03:10:21.258Z,32.03
2019-02-08T03:11:28.133Z,30.85
2019-02-08T03:12:35.633Z,30.05
2019-02-08T03:13:43.094Z,30.08
2019-02-08T03:14:50.314Z,30.50
2019-02-08T03:15:57.579Z,29.30
2019-02-08T03:17:04.191Z,28.15
2019-02-08T03:18:11.627Z,30.82
2019-02-08T03:19:19.437Z,32.35
2019-02-08T03:20:26.615Z,31.12
2019-02-08T03:21:33.726Z,31.25
2019-02-08T03:22:40.644Z,30.77
2019-02-08T03:23:47.869Z,29.00
2019-02-08T03:24:55.548Z,31.23
2019-02-08T03:26:02.132Z,28.92
2019-02-08T03:27:09.483Z,30.08
2019-02-08T03:28:16.347Z,29.45
2019-02-08T03:29:23.728Z,29.15
2019-02-08T03:30:33.223Z,29.52
2019-02-08T03:31:41.092Z,30.25
2019-02-08T03:32:47.644Z,30.45
2019-02-08T03:33:55.019Z,31.00
2019-02-08T03:35:01.881Z,31.02
2019-02-08T03:36:09.034Z,31.65
2019-02-08T03:37:15.808Z,29.87
2019-02-08T03:38:22.778Z,28.70
2019-02-08T03:39:29.482Z,28.47
2019-02-08T03:40:36.156Z,29.63
2019-02-08T03:41:42.748Z,29.15
2019-02-08T03:42:49.117Z,27.98
2019-02-08T03:43:56.570Z,28.70
2019-02-08T03:45:03.263Z,29.50
2019-02-08T03:46:10.923Z,28.30
2019-02-08T03:47:17.947Z,29.00
2019-02-08T03:48:27.732Z,29.42
2019-02-08T03:49:34.953Z,29.75
2019-02-08T03:50:41.576Z,28.23
2019-02-08T03:51:49.199Z,29.90
2019-02-08T03:52:56.444Z,28.90
2019-02-08T03:54:03.536Z,28.45
2019-02-08T03:55:23.027Z,28.12
2019-02-08T03:56:30.453Z,28.83
2019-02-08T03:57:37.697Z,27.60
2019-02-08T03:58:44.160Z,29.40
2019-02-08T03:59:51.457Z,29.32
2019-02-08T04:01:00.857Z,28.20
2019-02-08T04:02:08.159Z,28.57
2019-02-08T04:03:14.505Z,28.45
2019-02-08T04:04:21.221Z,28.95
2019-02-08T04:05:27.656Z,28.67
2019-02-08T04:06:34.766Z,28.30
2019-02-08T04:07:41.694Z,28.02
2019-02-08T04:08:48.619Z,28.10
2019-02-08T04:09:55.425Z,26.87
2019-02-08T04:11:03.071Z,28.12
2019-02-08T04:12:09.990Z,30.15
2019-02-08T04:13:16.704Z,28.87
2019-02-08T04:14:23.778Z,27.77
2019-02-08T04:15:30.001Z,29.42
2019-02-08T04:16:37.219Z,28.25
2019-02-08T04:17:44.587Z,29.60
2019-02-08T04:18:51.186Z,28.07
2019-02-08T04:19:57.948Z,27.15
2019-02-08T04:21:05.115Z,29.45
2019-02-08T04:22:12.599Z,27.67
2019-02-08T04:23:18.605Z,28.30
2019-02-08T04:24:30.024Z,28.55
2019-02-08T04:25:34.095Z,29.10
2019-02-08T04:26:41.434Z,28.67
2019-02-08T04:27:48.863Z,31.10
2019-02-08T04:28:56.405Z,30.57
2019-02-08T04:30:03.381Z,29.20
2019-02-08T04:31:10.500Z,27.73
2019-02-08T04:32:17.687Z,28.05
2019-02-08T04:33:24.070Z,28.12
2019-02-08T04:34:30.355Z,27.37
2019-02-08T04:35:37.602Z,27.98
2019-02-08T04:36:44.646Z,27.70
2019-02-08T04:37:51.423Z,25.80
2019-02-08T04:38:57.789Z,28.05
2019-02-08T04:40:06.888Z,27.25
2019-02-08T04:41:13.612Z,26.73
2019-02-08T04:42:20.244Z,28.92
2019-02-08T04:43:26.388Z,29.70
2019-02-08T04:44:33.736Z,28.10
2019-02-08T04:45:40.309Z,27.15
2019-02-08T04:46:47.876Z,26.82
2019-02-08T04:47:54.989Z,28.38
2019-02-08T04:49:02.060Z,28.32
2019-02-08T04:50:27.602Z,28.45
2019-02-08T04:51:35.365Z,27.42
2019-02-08T04:52:42.240Z,29.82
2019-02-08T04:53:48.594Z,30.00
2019-02-08T04:54:54.794Z,30.40
2019-02-08T04:56:01.332Z,28.90
2019-02-08T04:57:07.830Z,29.27
2019-02-08T04:58:14.578Z,28.27
2019-02-08T04:59:20.795Z,26.85
2019-02-08T05:00:37.886Z,26.45
2019-02-08T05:01:45.502Z,27.75
2019-02-08T05:02:52.317Z,25.57
2019-02-08T05:03:58.820Z,26.30
2019-02-08T05:05:07.013Z,26.70
2019-02-08T05:06:14.507Z,26.10
2019-02-08T05:07:23.452Z,26.35
2019-02-08T05:08:31.261Z,26.37
2019-02-08T05:09:37.811Z,28.10
2019-02-08T05:10:44.523Z,27.75
2019-02-08T05:11:51.502Z,27.32
2019-02-08T05:12:58.449Z,25.88
2019-02-08T05:14:04.896Z,28.00
2019-02-08T05:15:12.145Z,27.07
2019-02-08T05:16:19.045Z,27.98
2019-02-08T05:17:25.580Z,28.00
2019-02-08T05:18:31.879Z,29.48
2019-02-08T05:19:39.331Z,28.80
2019-02-08T05:20:47.100Z,27.87
2019-02-08T05:21:54.554Z,29.35
2019-02-08T05:23:01.146Z,28.87
2019-02-08T05:24:07.867Z,28.47
2019-02-08T05:25:15.274Z,27.58
2019-02-08T05:26:21.907Z,25.82
2019-02-08T05:27:28.595Z,24.35
2019-02-08T05:28:36.944Z,26.07
2019-02-08T05:29:43.664Z,25.70
2019-02-08T05:30:51.065Z,26.23
2019-02-08T05:31:57.826Z,26.40
2019-02-08T05:33:03.993Z,26.65
2019-02-08T05:34:10.751Z,27.27
2019-02-08T05:35:18.110Z,26.33
2019-02-08T05:36:24.476Z,25.82
2019-02-08T05:37:31.707Z,27.25
2019-02-08T05:38:38.716Z,26.60
2019-02-08T05:39:45.698Z,27.40
2019-02-08T05:40:52.735Z,26.93
2019-02-08T05:41:59.760Z,26.95
2019-02-08T05:43:06.969Z,26.62
2019-02-08T05:44:13.490Z,26.10
2019-02-08T05:45:22.610Z,27.60
2019-02-08T05:46:35.339Z,27.42
2019-02-08T05:47:42.184Z,26.82
2019-02-08T05:48:49.174Z,26.97
2019-02-08T05:49:56.326Z,27.00
2019-02-08T05:51:03.401Z,26.82
2019-02-08T05:52:11.530Z,25.85
2019-02-08T05:53:20.605Z,25.43
2019-02-08T05:54:27.735Z,25.50
2019-02-08T05:55:34.726Z,23.38
2019-02-08T05:56:42.043Z,24.15
2019-02-08T05:57:48.916Z,23.98
2019-02-08T05:58:55.302Z,25.40
2019-02-08T06:00:01.947Z,26.37
2019-02-08T06:01:08.552Z,26.87
2019-02-08T06:02:16.583Z,27.40
2019-02-08T06:03:23.774Z,25.68
2019-02-08T06:04:31.027Z,27.05
2019-02-08T06:05:37.837Z,27.82
2019-02-08T06:06:44.809Z,29.27
2019-02-08T06:07:52.351Z,28.15
2019-02-08T06:09:04.883Z,30.17
2019-02-08T06:10:14.983Z,29.10
2019-02-08T06:11:22.699Z,29.00
2019-02-08T06:12:29.225Z,29.50
2019-02-08T06:13:35.839Z,30.43
2019-02-08T06:14:43.007Z,29.25
2019-02-08T06:15:49.633Z,27.58
2019-02-08T06:16:57.277Z,26.02
2019-02-08T06:18:05.356Z,27.10
2019-02-08T06:19:12.963Z,27.50
2019-02-08T06:20:23.093Z,27.42
2019-02-08T06:21:29.207Z,26.23
2019-02-08T06:22:38.965Z,27.37
2019-02-08T06:23:46.556Z,26.27
2019-02-08T06:24:53.550Z,27.05
2019-02-08T06:26:01.127Z,28.00
2019-02-08T06:27:07.572Z,29.27
2019-02-08T06:28:14.631Z,25.88
2019-02-08T06:29:21.114Z,28.62
2019-02-08T06:30:31.930Z,26.48
2019-02-08T06:31:39.102Z,26.90
2019-02-08T06:32:46.381Z,27.05
2019-02-08T06:33:54.687Z,29.82
2019-02-08T06:35:01.107Z,28.87
2019-02-08T06:36:08.134Z,28.67
2019-02-08T06:37:14.471Z,29.05
2019-02-08T06:38:20.705Z,28.30
2019-02-08T06:39:27.440Z,28.00
2019-02-08T06:40:46.655Z,27.07
2019-02-08T06:41:52.848Z,27.07
2019-02-08T06:42:59.929Z,26.45
2019-02-08T06:44:05.965Z,26.87
2019-02-08T06:45:17.197Z,25.82
2019-02-08T06:46:24.614Z,24.75
2019-02-08T06:47:31.464Z,25.68
2019-02-08T06:48:38.279Z,26.35
2019-02-08T06:49:45.146Z,26.05
2019-02-08T06:50:50.797Z,25.80
2019-02-08T06:51:57.546Z,25.25
2019-02-08T06:53:03.814Z,26.55
2019-02-08T06:54:10.336Z,27.35
2019-02-08T06:55:16.476Z,26.02
2019-02-08T06:56:41.844Z,26.93
2019-02-08T06:57:52.576Z,26.48
2019-02-08T06:59:05.711Z,27.20
2019-02-08T07:00:23.338Z,29.77
2019-02-08T07:01:31.296Z,28.57
2019-02-08T07:02:39.591Z,27.60
2019-02-08T07:03:47.316Z,28.35
2019-02-08T07:05:04.857Z,27.60
2019-02-08T07:06:16.396Z,27.80
2019-02-08T07:07:23.636Z,28.10
2019-02-08T07:08:44.316Z,30.08
2019-02-08T07:09:57.478Z,28.55
2019-02-08T07:11:08.651Z,29.32
2019-02-08T07:12:37.295Z,29.05
2019-02-08T07:13:49.018Z,28.60
2019-02-08T07:15:03.239Z,28.47
2019-02-08T07:16:11.336Z,28.42
2019-02-08T07:17:37.890Z,28.32
2019-02-08T07:18:46.483Z,28.92
2019-02-08T07:19:54.571Z,28.27
2019-02-08T07:21:08.591Z,29.02
2019-02-08T07:22:21.603Z,30.15
2019-02-08T07:23:29.450Z,29.48
2019-02-08T07:24:42.163Z,29.98
2019-02-08T07:25:53.570Z,29.75
2019-02-08T07:27:11.062Z,30.25
2019-02-08T07:28:24.527Z,30.62
2019-02-08T07:29:38.930Z,28.60
2019-02-08T07:31:00.056Z,28.80
2019-02-08T07:32:10.911Z,30.37
2019-02-08T07:33:19.812Z,30.62
2019-02-08T07:34:33.379Z,30.97
2019-02-08T07:35:43.631Z,30.10
2019-02-08T07:36:54.550Z,29.80
2019-02-08T07:38:02.990Z,29.77
2019-02-08T07:39:15.091Z,29.05
2019-02-08T07:40:36.670Z,28.30
2019-02-08T07:41:45.918Z,28.27
2019-02-08T07:42:54.301Z,28.10
2019-02-08T07:44:05.577Z,26.93
2019-02-08T07:45:16.738Z,25.60
2019-02-08T07:46:28.430Z,25.85
2019-02-08T07:47:39.752Z,28.40
2019-02-08T07:49:04.138Z,30.48
2019-02-08T07:50:29.605Z,29.25
2019-02-08T07:51:39.044Z,32.38
2019-02-08T07:52:50.484Z,34.25
2019-02-08T07:54:05.806Z,32.67
2019-02-08T07:55:17.697Z,41.30
2019-02-08T07:56:37.544Z,38.92
2019-02-08T07:57:48.284Z,42.33
2019-02-08T07:59:01.777Z,44.48
2019-02-08T08:00:32.467Z,57.45
2019-02-08T08:01:43.732Z,43.83
2019-02-08T08:02:54.125Z,50.70
2019-02-08T08:04:01.830Z,42.85
2019-02-08T08:05:11.365Z,33.90
2019-02-08T08:06:22.324Z,33.00
2019-02-08T08:07:32.053Z,46.90
2019-02-08T08:08:41.346Z,32.30
2019-02-08T08:09:56.865Z,42.88
2019-02-08T08:11:08.478Z,38.65
2019-02-08T08:12:18.762Z,33.63
2019-02-08T08:13:29.383Z,39.15
2019-02-08T08:14:53.584Z,26.95
2019-02-08T08:16:13.603Z,30.17
2019-02-08T08:17:21.104Z,27.37
2019-02-08T08:18:29.906Z,25.48
2019-02-08T08:19:51.443Z,27.17
2019-02-08T08:21:18.876Z,36.45
2019-02-08T08:22:35.023Z,35.25
2019-02-08T08:23:56.783Z,30.77
2019-02-08T08:25:18.416Z,24.02
2019-02-08T08:26:44.544Z,25.45
2019-02-08T08:27:53.206Z,23.35
2019-02-08T08:29:07.301Z,26.20
2019-02-08T08:30:20.341Z,26.33
2019-02-08T08:31:28.601Z,26.17
2019-02-08T08:32:36.280Z,29.52
2019-02-08T08:33:53.301Z,37.25
2019-02-08T08:35:15.715Z,27.37
2019-02-08T08:45:58.162Z,23.87
2019-02-08T08:47:23.881Z,24.43
2019-02-08T08:48:53.881Z,27.40
2019-02-08T08:50:19.202Z,23.45
2019-02-08T08:51:49.417Z,22.48
2019-02-08T08:53:17.420Z,26.90
2019-02-08T08:55:10.636Z,25.92
2019-02-08T08:56:46.677Z,24.52
2019-02-08T08:58:33.894Z,24.12
2019-02-08T09:00:05.922Z,27.02
2019-02-08T09:01:31.462Z,21.70
2019-02-08T09:03:02.164Z,22.90
2019-02-08T09:04:46.821Z,25.23
2019-02-08T09:06:15.525Z,22.52
2019-02-08T09:07:35.230Z,22.45
2019-02-08T09:09:04.881Z,21.95
2019-02-08T09:10:56.001Z,23.20
2019-02-08T09:12:09.121Z,26.30
2019-02-08T09:13:53.177Z,34.13
2019-02-08T09:15:18.223Z,23.62
2019-02-08T09:17:00.041Z,24.18
2019-02-08T09:18:19.401Z,24.02
2019-02-08T09:19:39.776Z,21.85
2019-02-08T09:21:22.902Z,24.15
2019-02-08T09:22:56.840Z,25.37
2019-02-08T09:24:44.822Z,21.40
2019-02-08T09:26:22.195Z,21.80
2019-02-08T09:28:04.404Z,22.82
2019-02-08T09:29:35.715Z,25.52
2019-02-08T09:31:01.341Z,25.25
2019-02-08T09:32:27.560Z,23.62
2019-02-08T09:33:54.421Z,21.70
2019-02-08T09:35:33.213Z,23.67
2019-02-08T09:37:09.682Z,52.45
2019-02-08T09:38:41.833Z,36.25
2019-02-08T09:40:14.380Z,32.83
2019-02-08T09:41:44.561Z,26.87
2019-02-08T09:43:25.460Z,23.00
2019-02-08T09:45:07.541Z,21.48
2019-02-08T09:46:55.260Z,21.97
2019-02-08T09:48:33.513Z,20.05
2019-02-08T09:50:31.361Z,26.48
2019-02-08T09:52:02.882Z,24.87
2019-02-08T09:53:36.390Z,23.85
2019-02-08T09:55:16.893Z,25.05
2019-02-08T09:56:44.804Z,23.35
2019-02-08T09:58:28.134Z,24.77
2019-02-08T10:00:18.520Z,21.57
2019-02-08T10:01:34.581Z,31.57
2019-02-08T10:03:19.444Z,27.87
2019-02-08T10:05:04.223Z,25.40
2019-02-08T10:06:30.853Z,23.35
2019-02-08T10:08:17.142Z,22.85
2019-02-08T10:09:49.721Z,21.23
2019-02-08T10:11:23.104Z,20.05
2019-02-08T10:13:19.982Z,19.17
2019-02-08T10:15:01.295Z,20.75
2019-02-08T10:16:43.322Z,19.75
2019-02-08T10:18:30.421Z,20.20
2019-02-08T10:20:06.395Z,21.15
2019-02-08T10:21:35.793Z,20.90
2019-02-08T10:23:11.194Z,20.80
2019-02-08T10:24:54.240Z,20.75
2019-02-08T10:26:43.141Z,21.87
2019-02-08T10:28:40.821Z,20.12
2019-02-08T10:30:35.597Z,22.65
2019-02-08T10:32:07.991Z,22.87
2019-02-08T10:34:07.777Z,20.62
2019-02-08T10:36:00.523Z,19.48
2019-02-08T10:38:16.600Z,18.57
2019-02-08T10:39:57.830Z,32.40
2019-02-08T10:41:33.928Z,19.80
2019-02-08T10:43:25.361Z,19.60
2019-02-08T10:44:47.672Z,20.68
2019-02-08T10:46:28.540Z,17.55
2019-02-08T10:49:51.720Z,19.77
2019-02-08T10:51:39.301Z,20.57
2019-02-08T10:53:23.742Z,20.80
2019-02-08T10:55:09.836Z,25.57
2019-02-08T10:56:39.380Z,22.98
2019-02-08T10:58:22.363Z,21.00
2019-02-08T11:00:14.662Z,19.80
2019-02-08T11:02:08.501Z,19.65
2019-02-08T11:03:54.776Z,19.80
2019-02-08T11:05:25.220Z,18.48
2019-02-08T11:07:03.938Z,18.37
2019-02-08T11:08:52.656Z,27.40
2019-02-08T11:10:44.123Z,19.32
2019-02-08T11:12:18.958Z,19.35
2019-02-08T11:15:38.181Z,18.00
2019-02-08T11:17:19.386Z,19.60
2019-02-08T11:19:02.791Z,18.37
2019-02-08T11:20:10.561Z,18.10
2019-02-08T11:21:17.197Z,16.62
2019-02-08T11:22:24.761Z,16.40
2019-02-08T11:23:32.462Z,17.65
2019-02-08T11:24:39.661Z,19.62
2019-02-08T11:25:47.974Z,19.73
2019-02-08T11:26:56.155Z,17.80
2019-02-08T11:28:05.774Z,17.00
2019-02-08T11:29:14.155Z,18.62
2019-02-08T11:30:21.073Z,18.37
2019-02-08T11:31:28.876Z,17.50
2019-02-08T11:32:43.257Z,18.17
2019-02-08T11:33:42.390Z,17.95
2019-02-08T11:34:49.260Z,18.82
2019-02-08T11:35:56.524Z,18.92
2019-02-08T11:37:02.984Z,18.67
2019-02-08T11:38:10.722Z,19.40
2019-02-08T11:39:17.753Z,19.12
2019-02-08T11:40:26.774Z,19.45
2019-02-08T11:41:34.624Z,18.32
2019-02-08T11:42:42.054Z,19.23
2019-02-08T11:43:49.635Z,18.35
2019-02-08T11:44:55.660Z,17.70
2019-02-08T11:46:01.621Z,17.77
2019-02-08T11:47:07.348Z,17.82
2019-02-08T11:48:13.650Z,17.17
2019-02-08T11:49:20.147Z,17.60
2019-02-08T11:50:29.284Z,17.90
2019-02-08T11:51:35.418Z,18.42
2019-02-08T11:52:41.362Z,17.42
2019-02-08T11:53:47.397Z,20.10
2019-02-08T11:54:53.754Z,19.25
2019-02-08T11:56:01.887Z,19.67
2019-02-08T11:57:08.073Z,19.12
2019-02-08T11:58:16.221Z,17.60
2019-02-08T11:59:22.507Z,18.77
2019-02-08T12:00:40.322Z,16.75
2019-02-08T12:01:53.641Z,17.48
2019-02-08T12:03:00.606Z,17.42
2019-02-08T12:04:06.904Z,17.23
2019-02-08T12:05:12.553Z,18.25
2019-02-08T12:06:18.583Z,17.40
2019-02-08T12:07:25.896Z,18.07
2019-02-08T12:08:31.623Z,17.75
2019-02-08T12:09:38.241Z,16.48
2019-02-08T12:11:06.442Z,18.27
2019-02-08T12:12:12.382Z,17.00
2019-02-08T12:13:19.214Z,17.57
2019-02-08T12:14:25.377Z,18.00
2019-02-08T12:15:31.902Z,17.12
2019-02-08T12:16:39.680Z,17.10
2019-02-08T12:17:46.220Z,18.27
2019-02-08T12:18:52.301Z,18.67
2019-02-08T12:19:58.014Z,17.95
2019-02-08T12:21:04.360Z,19.30
2019-02-08T12:22:11.874Z,17.55
2019-02-08T12:23:19.154Z,17.52
2019-02-08T12:24:25.001Z,18.15
2019-02-08T12:25:31.576Z,16.20
2019-02-08T12:26:38.735Z,16.42
2019-02-08T12:29:05.754Z,16.42
2019-02-08T12:30:28.055Z,17.70
2019-02-08T12:31:35.274Z,18.23
2019-02-08T12:32:42.463Z,16.45
2019-02-08T12:33:48.603Z,18.30
2019-02-08T12:34:54.400Z,17.15
2019-02-08T12:36:02.967Z,17.60
2019-02-08T12:37:10.031Z,18.10
2019-02-08T12:38:17.697Z,18.67
2019-02-08T12:39:24.974Z,19.57
2019-02-08T12:40:32.774Z,18.90
2019-02-08T12:41:38.880Z,20.50
2019-02-08T12:42:45.080Z,19.35
2019-02-08T12:43:51.693Z,19.27
2019-02-08T12:44:57.731Z,19.30
2019-02-08T12:46:04.143Z,19.37
2019-02-08T12:47:10.700Z,18.77
2019-02-08T12:48:16.453Z,18.67
2019-02-08T12:49:22.713Z,16.55
2019-02-08T12:50:30.740Z,17.67
2019-02-08T12:51:42.870Z,17.25
2019-02-08T12:52:49.622Z,18.57
2019-02-08T12:53:55.721Z,18.57
2019-02-08T12:55:01.908Z,17.92
2019-02-08T12:56:08.861Z,17.30
2019-02-08T12:57:14.956Z,19.12
2019-02-08T12:58:22.760Z,19.60
2019-02-08T12:59:28.495Z,19.00
2019-02-08T13:00:35.364Z,20.65
2019-02-08T13:01:44.062Z,20.77
2019-02-08T13:02:49.874Z,19.80
2019-02-08T13:03:55.961Z,20.02
2019-02-08T13:05:02.041Z,25.35
2019-02-08T13:06:09.741Z,27.37
2019-02-08T13:07:15.436Z,38.65
2019-02-08T13:08:21.373Z,37.53
2019-02-08T13:09:27.123Z,24.27
2019-02-08T13:10:34.397Z,32.45
2019-02-08T13:11:42.080Z,28.65
2019-02-08T13:12:48.453Z,21.77
2019-02-08T13:13:54.200Z,19.60
2019-02-08T13:15:00.277Z,24.05
2019-02-08T13:16:06.557Z,22.13
2019-02-08T13:17:12.634Z,19.27
2019-02-08T13:18:19.181Z,19.00
2019-02-08T13:19:25.195Z,19.35
2019-02-08T13:20:31.083Z,19.30
2019-02-08T13:21:37.164Z,19.87
2019-02-08T13:22:43.323Z,20.12
2019-02-08T13:23:49.300Z,20.92
2019-02-08T13:24:55.861Z,20.70
2019-02-08T13:26:03.079Z,20.68
2019-02-08T13:27:08.909Z,20.57
2019-02-08T13:28:14.660Z,21.25
2019-02-08T13:29:20.402Z,20.23
2019-02-08T13:30:34.421Z,21.45
2019-02-08T13:31:40.361Z,21.93
2019-02-08T13:32:46.220Z,21.37
2019-02-08T13:33:52.373Z,21.45
2019-02-08T13:35:00.133Z,20.15
2019-02-08T13:36:10.234Z,20.75
2019-02-08T13:37:17.189Z,22.10
2019-02-08T13:38:24.560Z,25.45
2019-02-08T13:39:31.018Z,21.40
2019-02-08T13:40:38.581Z,19.70
2019-02-08T13:41:44.363Z,20.70
2019-02-08T13:42:53.541Z,20.10
2019-02-08T13:44:00.848Z,20.35
2019-02-08T13:45:11.941Z,20.90
2019-02-08T13:46:18.041Z,21.68
2019-02-08T13:47:24.214Z,20.92
2019-02-08T13:48:30.174Z,21.93
2019-02-08T13:49:37.441Z,20.35
2019-02-08T13:50:44.943Z,21.87
2019-02-08T13:51:51.690Z,20.72
2019-02-08T13:52:58.943Z,20.97
2019-02-08T13:54:06.560Z,21.60
2019-02-08T13:55:33.375Z,22.10
2019-02-08T13:56:40.844Z,21.62
2019-02-08T13:57:46.922Z,21.33
2019-02-08T13:58:52.990Z,20.40
2019-02-08T13:59:59.097Z,20.20
2019-02-08T14:01:05.473Z,21.33
2019-02-08T14:02:11.674Z,20.17
2019-02-08T14:03:19.101Z,19.23
2019-02-08T14:04:25.233Z,19.80
2019-02-08T14:05:30.981Z,19.15
2019-02-08T14:06:38.263Z,20.00
2019-02-08T14:07:44.422Z,20.10
2019-02-08T14:08:51.286Z,21.33
2019-02-08T14:09:58.025Z,21.12
2019-02-08T14:11:06.393Z,21.20
2019-02-08T14:12:12.362Z,21.57
2019-02-08T14:13:18.760Z,20.75
2019-02-08T14:14:25.255Z,21.62
2019-02-08T14:15:32.081Z,21.27
2019-02-08T14:16:38.501Z,22.02
2019-02-08T14:18:06.182Z,20.60
2019-02-08T14:19:12.499Z,21.87
2019-02-08T14:20:25.940Z,22.82
2019-02-08T14:21:32.501Z,20.05
2019-02-08T14:22:40.561Z,19.15
2019-02-08T14:23:47.100Z,20.60
2019-02-08T14:24:53.941Z,20.32
2019-02-08T14:26:00.064Z,19.50
2019-02-08T14:27:08.588Z,20.45
2019-02-08T14:28:15.284Z,18.73
2019-02-08T14:29:21.033Z,19.67
2019-02-08T14:30:33.721Z,19.67
2019-02-08T14:31:39.653Z,19.35
2019-02-08T14:32:46.081Z,20.08
2019-02-08T14:33:54.822Z,19.77
2019-02-08T14:35:08.862Z,19.70
2019-02-08T14:36:15.905Z,21.05
2019-02-08T14:37:42.993Z,19.65
2019-02-08T14:38:49.627Z,19.92
2019-02-08T14:39:56.217Z,20.05
2019-02-08T14:41:02.925Z,19.55
2019-02-08T14:42:09.593Z,19.73
2019-02-08T14:43:15.396Z,19.30
2019-02-08T14:44:21.583Z,19.75
2019-02-08T14:45:48.084Z,18.37
2019-02-08T14:46:54.405Z,18.85
2019-02-08T14:48:00.284Z,18.87
2019-02-08T14:49:10.714Z,18.85
2019-02-08T14:50:24.666Z,19.40
2019-02-08T14:51:33.431Z,19.30
2019-02-08T14:52:44.581Z,18.52
2019-02-08T14:54:05.897Z,18.48
2019-02-08T14:55:11.461Z,18.40
2019-02-08T14:56:17.462Z,19.65
2019-02-08T14:57:23.301Z,19.27
2019-02-08T14:58:29.060Z,19.62
2019-02-08T14:59:35.585Z,19.02
2019-02-08T15:00:42.157Z,21.00
2019-02-08T15:03:04.857Z,19.32
2019-02-08T15:04:24.445Z,19.48
2019-02-08T15:05:35.322Z,19.52
2019-02-08T15:06:46.604Z,20.88
2019-02-08T15:07:54.386Z,20.97
2019-02-08T15:09:03.699Z,20.37
2019-02-08T15:10:27.462Z,20.00
2019-02-08T15:11:34.703Z,18.90
2019-02-08T15:12:40.842Z,18.45
2019-02-08T15:13:47.661Z,20.05
2019-02-08T15:14:54.202Z,19.12
2019-02-08T15:16:00.923Z,19.62
2019-02-08T15:17:08.556Z,20.08
2019-02-08T15:18:14.692Z,22.05
2019-02-08T15:19:21.802Z,21.60
2019-02-08T15:20:33.493Z,20.80
2019-02-08T15:21:40.467Z,20.08
2019-02-08T15:22:46.641Z,21.20
2019-02-08T15:23:53.094Z,21.48
2019-02-08T15:25:02.764Z,20.65
2019-02-08T15:26:09.270Z,21.30
2019-02-08T15:27:16.141Z,21.23
2019-02-08T15:28:23.168Z,21.85
2019-02-08T15:29:29.706Z,22.35
2019-02-08T15:30:38.128Z,21.37
2019-02-08T15:31:45.068Z,21.45
2019-02-08T15:32:51.566Z,20.57
2019-02-08T15:33:57.673Z,20.17
2019-02-08T15:35:04.160Z,21.68
2019-02-08T15:36:12.702Z,20.62
2019-02-08T15:37:18.886Z,20.60
2019-02-08T15:38:26.729Z,20.27
2019-02-08T15:39:33.960Z,19.37
2019-02-08T15:40:44.272Z,20.15
2019-02-08T15:41:51.600Z,19.92